Minneapolis, Minnesota
Traffic Map
Current Weather Conditions
Minneapolis, Minnesota
Overcast
Overcast
-9°
Feels Like: -16°
Wind Chill: -16° Ceiling: 7500
Heat Index: -9° Visibility: 8mi
Dew Point: -13° Wind: 9mph
Humidity: 74% Direction: 180° (S)
Pressure: 30.28in Gusts: 0mph
Raw Report DataKMSP 010753Z 18008KT 8SM FEW060 OVC075 M09/M13 A3028 RMK AO2 SLP270 T10941133
Traffic Incident Summary
Active as of:
Severity:
Category:
InformationThere was an issue retrieving the traffic information for this location. Please try a different location or try again shortly.
Advertisements
Track Severe Weather on mobile